M I D A S
Marine Information and Data Acquisition System
Tripno 2199 of the Zeeleeuw from 2011-10-17 06:50:59 to 2011-10-17 16:44:45
Back to CruiseResearch ActivitiesStationsMapUnderway DataData graphs

EquipmentUnitsComments
TimeDGPSUTC
LatitudeDGPSDM.mWGS84
LongitudeDGPSDM.mWGS84
SpeedMeteo Stationm/sRelative wind speed
DirectionMeteo StationdegRelative wind direction
TemperatureMeteo Stationdeg CelciusAir temperature
PressureMeteo StationPaAtmospheric pressure
HumidityMeteo Station%Relative humidity
Missing or incorrect values are displayed as -999
Metereological data collected by the RV Zeeleeuw from 2011-10-17 06:19:01 to 2011-10-17 16:52:47
Time Latitude Longitude Speed Direction Temperature Pressure Humidity
2011-10-17 06:20 51°13.636 2°56.017 -999 17 10.1 102120 59
2011-10-17 06:21 51°13.636 2°56.018 -999 4 10.1 102120 59
2011-10-17 06:22 51°13.636 2°56.017 -999 13 10.1 102120 58
2011-10-17 06:23 51°13.636 2°56.016 -999 28 10.1 102120 59
2011-10-17 06:24 51°13.637 2°56.014 -999 6 10.1 102120 59
2011-10-17 06:25 51°13.637 2°56.014 -999 14 10.1 102120 59
2011-10-17 06:26 51°13.637 2°56.015 -999 12 10.1 102120 59
2011-10-17 06:27 51°13.637 2°56.015 -999 17 10.1 102120 59
2011-10-17 06:28 51°13.637 2°56.015 -999 8 10.1 102120 59
2011-10-17 06:29 51°13.637 2°56.016 -999 15 10.1 102120 59
2011-10-17 06:30 51°13.637 2°56.016 -999 13 10.1 102120 57
2011-10-17 06:31 51°13.637 2°56.016 -999 18 10.1 102120 59
2011-10-17 06:32 51°13.638 2°56.016 -999 18 10.1 102120 59
2011-10-17 06:33 51°13.638 2°56.016 -999 4 10.1 102120 59
2011-10-17 06:34 51°13.637 2°56.016 -999 9 10.1 102120 59
2011-10-17 06:35 51°13.637 2°56.015 -999 20 10.1 102120 59
2011-10-17 06:36 51°13.637 2°56.016 -999 17 10.1 102120 59
2011-10-17 06:37 51°13.637 2°56.016 -999 34 10.1 102120 59
2011-10-17 06:38 51°13.637 2°56.015 -999 18 10.2 102120 59
2011-10-17 06:39 51°13.636 2°56.015 -999 27 10.2 102130 59
2011-10-17 06:40 51°13.637 2°56.017 -999 19 10.2 102130 59
2011-10-17 06:41 51°13.635 2°56.015 -999 25 10.2 102130 59
2011-10-17 06:42 51°13.635 2°56.015 -999 19 10.2 102130 59
2011-10-17 06:43 51°13.636 2°56.014 -999 13 10.1 102130 59
2011-10-17 06:44 51°13.636 2°56.015 -999 12 10.1 102130 59
2011-10-17 06:45 51°13.637 2°56.015 -999 19 10.1 102130 59
2011-10-17 06:46 51°13.638 2°56.016 -999 22 10.1 102130 59
2011-10-17 06:47 51°13.639 2°56.016 -999 19 10 102130 59
2011-10-17 06:48 51°13.64 2°56.016 -999 11 10 102140 59
2011-10-17 06:49 51°13.64 2°56.017 -999 17 10 102140 59
2011-10-17 06:50 51°13.639 2°56.017 -999 25 10 102140 59
2011-10-17 06:51 51°13.641 2°56.017 2.3 14 10 102130 59
2011-10-17 06:52 51°13.64 2°56.016 1.2 18 10 102140 59
2011-10-17 06:53 51°13.64 2°56.015 0.1 18 10 102140 59
2011-10-17 06:54 51°13.638 2°56.012 -999 14 10 102140 59
2011-10-17 06:55 51°13.621 2°56.031 2.5 2 10 102140 59
2011-10-17 06:56 51°13.631 2°55.997 2.3 20 10 102140 60
2011-10-17 06:57 51°13.669 2°55.902 2.8 26 10 102140 58
2011-10-17 06:58 51°13.697 2°55.803 2.7 23 10 102140 60
2011-10-17 06:59 51°13.702 2°55.738 1.6 44 10 102140 60
2011-10-17 07:00 51°13.707 2°55.741 2.9 27 10 102140 59
2011-10-17 07:01 51°13.717 2°55.727 0.2 248 10 102140 58
2011-10-17 07:02 51°13.81 2°55.657 3.5 319 10 102140 60
2011-10-17 07:03 51°13.939 2°55.574 2.7 22 10.1 102140 58
2011-10-17 07:04 51°14.072 2°55.488 2.2 331 10.1 102140 58
2011-10-17 07:05 51°14.217 2°55.355 4.3 22 10.2 102140 58
2011-10-17 07:06 51°14.373 2°55.213 5.8 29 10.5 102130 59
2011-10-17 07:07 51°14.531 2°55.056 5.4 23 10.8 102130 59
2011-10-17 07:08 51°14.696 2°54.87 4.7 23 10.8 102130 59
2011-10-17 07:09 51°14.881 2°54.757 0.2 24 10.7 102130 59
2011-10-17 07:10 51°15.076 2°54.741 3.4 28 10.8 102140 60
2011-10-17 07:11 51°15.264 2°54.664 5.3 27 11.1 102140 59
2011-10-17 07:12 51°15.456 2°54.587 4.4 24 11.3 102130 60
2011-10-17 07:13 51°15.65 2°54.522 3.8 28 11.4 102140 59
2011-10-17 07:14 51°15.845 2°54.454 4.3 19 11.5 102140 59
2011-10-17 07:15 51°16.012 2°54.369 3.7 250 11.6 102140 60
2011-10-17 07:16 51°16.114 2°54.333 1.9 263 11.7 102140 61
2011-10-17 07:17 51°16.178 2°54.302 2.9 270 11.8 102140 59
2011-10-17 07:18 51°16.233 2°54.275 1.2 24 11.9 102130 59
2011-10-17 07:19 51°16.254 2°54.267 4.8 28 12 102130 59
2011-10-17 07:20 51°16.263 2°54.26 3.3 25 12.2 102140 59
2011-10-17 07:21 51°16.271 2°54.252 4.6 21 12.3 102140 60
2011-10-17 07:22 51°16.278 2°54.241 4.3 25 12.3 102130 61
2011-10-17 07:23 51°16.285 2°54.229 4.4 23 12.4 102130 60
2011-10-17 07:24 51°16.29 2°54.215 5 28 12.6 102130 61
2011-10-17 07:25 51°16.295 2°54.201 4 268 12.6 102140 61
2011-10-17 07:26 51°16.299 2°54.185 2.6 265 12.7 102140 59
2011-10-17 07:27 51°16.302 2°54.169 3.2 259 12.7 102140 60
2011-10-17 07:28 51°16.304 2°54.152 4.7 246 12.9 102140 59
2011-10-17 07:29 51°16.305 2°54.137 5.3 25 12.8 102140 60
2011-10-17 07:30 51°16.306 2°54.125 5.7 245 12.7 102140 61
2011-10-17 07:31 51°16.306 2°54.115 6.1 22 12.7 102140 60
2011-10-17 07:32 51°16.306 2°54.107 6.2 254 12.8 102140 60
2011-10-17 07:33 51°16.305 2°54.1 5.6 261 12.7 102140 60
2011-10-17 07:34 51°16.304 2°54.093 5.5 262 12.8 102140 59
2011-10-17 07:35 51°16.272 2°54.081 5.2 25 12.8 102150 59
2011-10-17 07:36 51°16.213 2°54.032 3.2 22 12.9 102150 61
2011-10-17 07:37 51°16.202 2°54.038 2.1 25 12.9 102150 61
2011-10-17 07:38 51°16.218 2°54.16 -999 3 13 102160 60
2011-10-17 07:39 51°16.255 2°54.31 0.2 42 13 102150 60
2011-10-17 07:40 51°16.286 2°54.343 4.1 21 13 102150 60
2011-10-17 07:41 51°16.281 2°54.331 4.9 23 12.9 102150 59
2011-10-17 07:42 51°16.278 2°54.322 4.8 25 12.8 102160 59
2011-10-17 07:43 51°16.275 2°54.313 3.5 22 12.8 102150 60
2011-10-17 07:44 51°16.29 2°54.305 4.9 260 12.8 102160 59
2011-10-17 07:45 51°16.386 2°54.205 9.2 26 12.8 102140 60
2011-10-17 07:46 51°16.492 2°53.938 12.1 318 12.7 102120 59
2011-10-17 07:47 51°16.598 2°53.654 13.3 318 12.9 102130 60
2011-10-17 07:48 51°16.721 2°53.39 11.6 315 13.1 102120 60
2011-10-17 07:49 51°16.847 2°53.139 12.9 316 13.2 102110 58
2011-10-17 07:50 51°16.97 2°52.877 8.9 315 13.4 102120 58
2011-10-17 07:51 51°17.117 2°52.652 11.5 28 13.6 102120 57
2011-10-17 07:52 51°17.28 2°52.462 10.4 26 13.8 102120 56
2011-10-17 07:53 51°17.441 2°52.266 11.9 22 13.9 102120 56
2011-10-17 07:54 51°17.595 2°52.054 10.8 28 13.9 102100 55
2011-10-17 07:55 51°17.746 2°51.838 12.5 25 14.1 102110 55
2011-10-17 07:56 51°17.899 2°51.625 12.1 22 14.2 102100 54
2011-10-17 07:57 51°18.056 2°51.418 10.5 21 14.3 102110 52
2011-10-17 07:58 51°18.221 2°51.234 12.2 22 14.3 102100 52
2011-10-17 07:59 51°18.354 2°51.079 9.7 27 14.3 102110 52
2011-10-17 08:00 51°18.426 2°51.033 5 270 14.4 102120 51
2011-10-17 08:01 51°18.467 2°51.052 5.5 268 14.3 102140 49
2011-10-17 08:02 51°18.501 2°51.059 4.9 268 14.4 102130 49
2011-10-17 08:03 51°18.512 2°51.052 4.4 262 14.5 102140 49
2011-10-17 08:04 51°18.517 2°51.043 6.8 258 14.6 102130 49
2011-10-17 08:05 51°18.521 2°51.035 7.7 257 14.6 102120 50
2011-10-17 08:06 51°18.524 2°51.026 6.4 261 14.6 102130 49
2011-10-17 08:07 51°18.526 2°51.018 7.2 258 14.6 102120 49
2011-10-17 08:08 51°18.528 2°51.012 6.4 260 14.7 102120 49
2011-10-17 08:09 51°18.529 2°51.006 8.4 258 14.7 102130 49
2011-10-17 08:10 51°18.53 2°51.001 8.4 261 14.7 102120 49
2011-10-17 08:11 51°18.531 2°50.996 6.4 262 14.6 102120 49
2011-10-17 08:12 51°18.531 2°50.992 5.8 263 14.7 102120 50
2011-10-17 08:13 51°18.532 2°50.988 5.2 263 14.7 102120 50
2011-10-17 08:14 51°18.565 2°50.989 4.2 26 14.7 102120 49
2011-10-17 08:15 51°18.618 2°51.116 0.1 25 14.7 102130 50
2011-10-17 08:16 51°18.682 2°51.38 0.5 38 14.9 102130 49
2011-10-17 08:17 51°18.725 2°51.675 1.6 27 14.9 102130 48
2011-10-17 08:18 51°18.777 2°51.96 0.7 36 14.9 102130 49
2011-10-17 08:19 51°18.832 2°52.257 0.7 35 15 102130 48
2011-10-17 08:20 51°18.89 2°52.544 0.5 34 15 102130 49
2011-10-17 08:21 51°18.962 2°52.822 1.1 39 15 102120 48
2011-10-17 08:22 51°19.027 2°53.103 0.9 27 15.1 102120 48
2011-10-17 08:23 51°19.079 2°53.386 2.2 32 15.1 102120 48
2011-10-17 08:24 51°19.127 2°53.682 0.7 32 15.1 102120 48
2011-10-17 08:25 51°19.179 2°53.971 0.3 16 15.1 102120 48
2011-10-17 08:26 51°19.248 2°54.251 0.1 26 15.2 102120 48
2011-10-17 08:27 51°19.315 2°54.525 1.1 36 15.3 102120 48
2011-10-17 08:28 51°19.367 2°54.817 2.7 29 15.4 102120 47
2011-10-17 08:29 51°19.416 2°55.106 1.1 36 15.2 102120 46
2011-10-17 08:30 51°19.472 2°55.39 2.1 30 15.3 102120 46
2011-10-17 08:31 51°19.527 2°55.675 0.8 29 15.2 102120 47
2011-10-17 08:32 51°19.595 2°55.95 1.6 27 15.2 102120 46
2011-10-17 08:33 51°19.652 2°56.23 0.8 32 15.3 102120 46
2011-10-17 08:34 51°19.701 2°56.516 1.9 32 15.3 102120 47
2011-10-17 08:35 51°19.745 2°56.8 1.9 36 15.4 102120 47
2011-10-17 08:36 51°19.78 2°57.087 1.8 38 15.4 102120 46
2011-10-17 08:37 51°19.82 2°57.371 0.1 38 15.3 102120 47
2011-10-17 08:38 51°19.873 2°57.644 0.6 10 15.4 102120 47
2011-10-17 08:39 51°19.922 2°57.922 2.5 28 15.5 102120 48
2011-10-17 08:40 51°19.969 2°58.205 1.6 34 15.4 102120 47
2011-10-17 08:41 51°20.024 2°58.472 2.6 357 15.4 102120 47
2011-10-17 08:42 51°20.063 2°58.757 4.1 1 15.2 102120 50
2011-10-17 08:43 51°20.111 2°59.029 3.9 3 14.8 102120 52
2011-10-17 08:44 51°20.17 2°59.294 3.7 359 14.4 102120 52
2011-10-17 08:45 51°20.214 2°59.56 4.8 -999 14.1 102120 54
2011-10-17 08:46 51°20.252 2°59.839 5 1 13.9 102120 55
2011-10-17 08:47 51°20.309 3°0.102 3.7 2 13.7 102120 54
2011-10-17 08:48 51°20.355 3°0.37 4.7 356 13.5 102120 54
2011-10-17 08:49 51°20.413 3°0.633 3.9 6 13.4 102120 55
2011-10-17 08:50 51°20.47 3°0.893 3.9 4 13.3 102120 55
2011-10-17 08:51 51°20.523 3°1.156 3.8 2 13.3 102120 56
2011-10-17 08:52 51°20.562 3°1.424 4.2 3 13.2 102120 56
2011-10-17 08:53 51°20.601 3°1.695 5.1 3 13.2 102110 56
2011-10-17 08:54 51°20.649 3°1.958 4.1 -999 13.1 102120 57
2011-10-17 08:55 51°20.7 3°2.231 4.5 5 13 102110 57
2011-10-17 08:56 51°20.76 3°2.494 4.8 2 13 102120 56
2011-10-17 08:57 51°20.804 3°2.766 4.3 5 13 102120 57
2011-10-17 08:58 51°20.859 3°3.032 3.1 5 13 102120 56
2011-10-17 08:59 51°20.907 3°3.301 3.7 5 13.1 102120 56
2011-10-17 09:00 51°20.981 3°3.553 2.5 6 13.1 102120 57
2011-10-17 09:01 51°21.067 3°3.798 2.8 1 13.1 102120 56
2011-10-17 09:02 51°21.135 3°4.054 3.7 6 13.1 102110 55
2011-10-17 09:03 51°21.214 3°4.304 3.1 5 13.1 102120 55
2011-10-17 09:04 51°21.296 3°4.553 3 6 13.1 102120 55
2011-10-17 09:05 51°21.365 3°4.812 3.3 5 13.2 102120 57
2011-10-17 09:06 51°21.451 3°5.055 2.4 7 13.2 102120 57
2011-10-17 09:07 51°21.528 3°5.304 3 7 13.2 102120 57
2011-10-17 09:08 51°21.595 3°5.56 2.5 10 13.3 102110 55
2011-10-17 09:09 51°21.676 3°5.804 -999 1 13.3 102120 56
2011-10-17 09:10 51°21.749 3°6.057 3.4 7 13.4 102120 55
2011-10-17 09:11 51°21.815 3°6.318 2.7 13 13.4 102120 55
2011-10-17 09:12 51°21.901 3°6.564 2.1 9 13.4 102110 55
2011-10-17 09:13 51°21.984 3°6.813 2.4 8 13.5 102120 56
2011-10-17 09:14 51°22.054 3°7.073 2.9 12 13.5 102120 57
2011-10-17 09:15 51°22.122 3°7.335 2.1 3 13.5 102110 55
2011-10-17 09:16 51°22.208 3°7.583 2.7 7 13.5 102120 55
2011-10-17 09:17 51°22.286 3°7.834 0.3 9 13.5 102120 55
2011-10-17 09:18 51°22.354 3°8.093 0.1 16 13.5 102120 55
2011-10-17 09:19 51°22.44 3°8.343 -999 9 13.6 102120 56
2011-10-17 09:20 51°22.502 3°8.609 4.6 6 13.7 102110 55
2011-10-17 09:21 51°22.563 3°8.877 3.5 10 13.6 102120 56
2011-10-17 09:22 51°22.623 3°9.146 4.5 7 13.6 102120 56
2011-10-17 09:23 51°22.609 3°9.432 5.6 6 13.6 102110 55
2011-10-17 09:24 51°22.573 3°9.713 5 5 13.6 102110 56
2011-10-17 09:25 51°22.541 3°9.996 5.4 5 13.6 102110 56
2011-10-17 09:26 51°22.517 3°10.285 4.6 6 13.7 102110 55
2011-10-17 09:27 51°22.483 3°10.573 5.5 2 13.7 102110 56
2011-10-17 09:28 51°22.473 3°10.857 1.8 8 13.8 102110 56
2011-10-17 09:29 51°22.477 3°11.142 0.1 6 13.8 102110 55
2011-10-17 09:30 51°22.481 3°11.427 4.7 7 13.8 102110 56
2011-10-17 09:31 51°22.502 3°11.712 3.8 3 13.9 102110 56
2011-10-17 09:32 51°22.523 3°11.994 5.9 2 13.9 102110 54
2011-10-17 09:33 51°22.524 3°12.285 4.5 2 13.9 102110 55
2011-10-17 09:34 51°22.536 3°12.57 5.6 358 13.9 102110 55
2011-10-17 09:35 51°22.55 3°12.831 3.3 13 13.8 102110 54
2011-10-17 09:36 51°22.573 3°12.973 4 24 13.8 102110 54
2011-10-17 09:37 51°22.573 3°13.068 3.9 16 13.9 102110 55
2011-10-17 09:38 51°22.555 3°13.187 4.3 13 14 102110 55
2011-10-17 09:39 51°22.544 3°13.341 2.2 43 14 102110 54
2011-10-17 09:40 51°22.598 3°13.371 3.6 20 14.1 102110 54
2011-10-17 09:41 51°22.62 3°13.338 5.5 262 14.1 102100 53
2011-10-17 09:42 51°22.632 3°13.302 5.8 257 14.1 102100 54
2011-10-17 09:43 51°22.641 3°13.27 6.9 256 14.2 102100 53
2011-10-17 09:44 51°22.65 3°13.238 7.9 258 14.3 102090 54
2011-10-17 09:45 51°22.658 3°13.209 5.7 254 14.4 102100 54
2011-10-17 09:46 51°22.663 3°13.182 5.7 258 14.5 102090 53
2011-10-17 09:47 51°22.67 3°13.155 4.5 256 14.5 102090 54
2011-10-17 09:48 51°22.679 3°13.119 4.6 260 14.6 102100 54
2011-10-17 09:49 51°22.721 3°13.035 5.3 24 14.7 102100 53
2011-10-17 09:50 51°22.834 3°12.901 4.9 21 14.7 102090 53
2011-10-17 09:51 51°23.019 3°12.77 7.9 21 14.7 102080 53
2011-10-17 09:52 51°23.198 3°12.619 8.6 25 14.6 102080 52
2011-10-17 09:53 51°23.37 3°12.428 7.4 27 14.6 102080 52
2011-10-17 09:54 51°23.539 3°12.243 7.2 29 14.6 102080 52
2011-10-17 09:55 51°23.714 3°12.081 5.6 27 14.6 102080 52
2011-10-17 09:56 51°23.883 3°11.897 7.3 21 14.6 102080 52
2011-10-17 09:57 51°24.056 3°11.721 6.8 27 14.6 102080 53
2011-10-17 09:58 51°24.203 3°11.49 9.2 24 14.6 102070 53
2011-10-17 09:59 51°24.3 3°11.185 9.8 26 14.6 102060 52
2011-10-17 10:00 51°24.395 3°10.874 10.5 21 14.5 102060 53
2011-10-17 10:01 51°24.491 3°10.558 8.4 22 14.4 102060 53
2011-10-17 10:02 51°24.549 3°10.237 12.6 20 14.4 102060 53
2011-10-17 10:03 51°24.576 3°9.888 11.1 28 14.3 102060 52
2011-10-17 10:04 51°24.605 3°9.554 11 24 14.3 102060 54
2011-10-17 10:05 51°24.63 3°9.21 10.1 19 14.3 102060 53
2011-10-17 10:06 51°24.637 3°8.878 9.9 27 14.3 102060 54
2011-10-17 10:07 51°24.648 3°8.538 10.8 25 14.2 102050 54
2011-10-17 10:08 51°24.664 3°8.212 9.6 27 14.2 102050 54
2011-10-17 10:09 51°24.682 3°7.878 9.3 27 14.2 102050 53
2011-10-17 10:10 51°24.738 3°7.574 10.9 22 14.2 102050 54
2011-10-17 10:11 51°24.876 3°7.356 6.5 245 14.2 102060 54
2011-10-17 10:12 51°25.05 3°7.264 5.6 247 14.2 102070 54
2011-10-17 10:13 51°25.227 3°7.158 6 247 14.3 102070 55
2011-10-17 10:14 51°25.408 3°7.088 5.6 253 14.3 102080 54
2011-10-17 10:15 51°25.586 3°7.02 6 255 14.3 102070 55
2011-10-17 10:16 51°25.736 3°7.115 1.8 27 14.4 102080 55
2011-10-17 10:17 51°25.842 3°7.342 2.1 18 14.4 102080 55
2011-10-17 10:18 51°25.938 3°7.592 1.4 37 14.4 102080 55
2011-10-17 10:19 51°26.064 3°7.799 0.2 42 14.3 102080 55
2011-10-17 10:20 51°26.195 3°7.993 -999 30 14.4 102080 55
2011-10-17 10:21 51°26.323 3°8.206 0.8 23 14.6 102080 55
2011-10-17 10:22 51°26.419 3°8.351 4.4 28 14.6 102080 55
2011-10-17 10:23 51°26.45 3°8.359 5.9 268 14.5 102070 54
2011-10-17 10:24 51°26.444 3°8.353 5.9 263 14.5 102060 53
2011-10-17 10:25 51°26.434 3°8.348 4.4 265 14.5 102070 54
2011-10-17 10:26 51°26.423 3°8.348 4.9 265 14.5 102060 53
2011-10-17 10:27 51°26.411 3°8.349 3.1 266 14.5 102060 54
2011-10-17 10:28 51°26.397 3°8.352 6.3 270 14.5 102060 54
2011-10-17 10:29 51°26.383 3°8.352 6.2 31 14.5 102070 54
2011-10-17 10:30 51°26.371 3°8.351 6 21 14.4 102060 54
2011-10-17 10:31 51°26.395 3°8.279 7.3 22 14.4 102060 53
2011-10-17 10:32 51°26.451 3°8.066 9.7 23 14.4 102040 54
2011-10-17 10:33 51°26.541 3°7.801 9.9 22 14.4 102050 54
2011-10-17 10:34 51°26.632 3°7.512 7.9 27 14.4 102040 54
2011-10-17 10:35 51°26.731 3°7.235 8.7 27 14.4 102040 54
2011-10-17 10:36 51°26.831 3°6.946 7.6 21 14.4 102040 54
2011-10-17 10:37 51°26.93 3°6.668 8.3 27 14.4 102040 54
2011-10-17 10:38 51°27.042 3°6.399 8.1 22 14.3 102040 54
2011-10-17 10:39 51°27.161 3°6.13 8.4 26 14.4 102040 54
2011-10-17 10:40 51°27.267 3°5.859 8.8 29 14.4 102040 55
2011-10-17 10:41 51°27.381 3°5.581 7.7 19 14.4 102040 55
2011-10-17 10:42 51°27.489 3°5.308 7.9 21 14.4 102040 54
2011-10-17 10:43 51°27.605 3°5.03 8.2 29 14.4 102040 54
2011-10-17 10:44 51°27.722 3°4.766 8.5 22 14.4 102040 54
2011-10-17 10:45 51°27.849 3°4.497 9.3 22 14.4 102030 54
2011-10-17 10:46 51°27.971 3°4.239 8.3 24 14.4 102030 55
2011-10-17 10:47 51°28.089 3°3.959 8.2 24 14.4 102030 55
2011-10-17 10:48 51°28.21 3°3.69 9.8 27 14.5 102030 54
2011-10-17 10:49 51°28.311 3°3.448 8.4 24 14.4 102030 55
2011-10-17 10:50 51°28.321 3°3.354 6.1 270 14.5 102030 55
2011-10-17 10:51 51°28.297 3°3.331 6.1 25 14.4 102030 55
2011-10-17 10:52 51°28.277 3°3.308 7.8 22 14.3 102030 55
2011-10-17 10:53 51°28.262 3°3.287 6.1 27 14.2 102040 54
2011-10-17 10:54 51°28.251 3°3.266 6.6 20 14.3 102030 55
2011-10-17 10:55 51°28.241 3°3.245 7.6 25 14.3 102030 54
2011-10-17 10:56 51°28.232 3°3.223 7.4 26 14.3 102030 56
2011-10-17 10:57 51°28.223 3°3.202 6.8 269 14.3 102020 54
2011-10-17 10:58 51°28.235 3°3.173 4.4 21 14.4 102030 55
2011-10-17 10:59 51°28.264 3°3.251 4.3 34 14.5 102030 54
2011-10-17 11:00 51°28.349 3°3.379 3.2 32 14.5 102040 55
2011-10-17 11:01 51°28.414 3°3.578 6.3 14 14.5 102030 55
2011-10-17 11:02 51°28.357 3°3.676 6 9 14.5 102020 55
2011-10-17 11:03 51°28.282 3°3.73 7.8 344 14.5 102010 55
2011-10-17 11:04 51°28.22 3°3.672 7.6 315 14.4 102010 55
2011-10-17 11:05 51°28.202 3°3.628 6.9 248 14.5 102020 54
2011-10-17 11:06 51°28.192 3°3.602 5.3 264 14.6 102020 55
2011-10-17 11:07 51°28.181 3°3.586 6.2 269 14.6 102020 54
2011-10-17 11:08 51°28.169 3°3.573 7.1 23 14.5 102020 54
2011-10-17 11:09 51°28.157 3°3.56 6.1 20 14.6 102020 54
2011-10-17 11:10 51°28.146 3°3.545 7.5 28 14.6 102020 55
2011-10-17 11:11 51°28.134 3°3.531 6.4 28 14.6 102020 55
2011-10-17 11:12 51°28.122 3°3.518 6.2 270 14.6 102010 55
2011-10-17 11:13 51°28.11 3°3.507 7.3 270 14.6 102010 54
2011-10-17 11:14 51°28.099 3°3.496 5.8 25 14.6 102020 54
2011-10-17 11:15 51°28.088 3°3.483 8.1 270 14.6 102010 54
2011-10-17 11:16 51°28.078 3°3.471 6.1 269 14.6 102010 53
2011-10-17 11:17 51°28.068 3°3.459 6.8 270 14.6 102010 55
2011-10-17 11:18 51°28.059 3°3.444 6.3 267 14.6 102010 54
2011-10-17 11:19 51°28.062 3°3.398 8.1 247 14.6 102000 54
2011-10-17 11:20 51°28.051 3°3.323 9.2 317 14.7 102000 54
2011-10-17 11:21 51°27.999 3°3.126 13.9 316 14.6 101990 54
2011-10-17 11:22 51°27.959 3°2.796 13.1 25 14.6 101970 54
2011-10-17 11:23 51°27.913 3°2.45 12.6 318 14.6 101970 54
2011-10-17 11:24 51°27.861 3°2.103 13.7 22 14.6 101960 54
2011-10-17 11:25 51°27.81 3°1.76 10.6 316 14.6 101970 54
2011-10-17 11:26 51°27.748 3°1.406 15.1 316 14.6 101970 54
2011-10-17 11:27 51°27.693 3°1.061 11.8 317 14.6 101960 53
2011-10-17 11:28 51°27.637 3°0.704 11.4 319 14.7 101960 53
2011-10-17 11:29 51°27.581 3°0.359 14.2 22 14.7 101950 53
2011-10-17 11:30 51°27.544 2°59.999 15.5 24 14.7 101940 52
2011-10-17 11:31 51°27.5 2°59.656 11.7 26 14.7 101940 52
2011-10-17 11:32 51°27.46 2°59.303 13.6 19 14.6 101940 51
2011-10-17 11:33 51°27.415 2°58.965 9.5 25 14.7 101940 52
2011-10-17 11:34 51°27.394 2°58.614 13.4 27 14.7 101930 51
2011-10-17 11:35 51°27.401 2°58.266 10 25 14.6 101940 52
2011-10-17 11:36 51°27.403 2°57.916 13.8 25 14.7 101930 51
2011-10-17 11:37 51°27.393 2°57.563 12.5 22 14.7 101930 52
2011-10-17 11:38 51°27.392 2°57.211 6.3 27 14.7 101930 52
2011-10-17 11:39 51°27.383 2°56.857 10.1 26 14.7 101920 52
2011-10-17 11:40 51°27.338 2°56.512 14.3 319 14.7 101920 52
2011-10-17 11:41 51°27.264 2°56.174 3.8 318 14.8 101920 52
2011-10-17 11:42 51°27.194 2°55.836 9.5 316 14.8 101920 52
2011-10-17 11:43 51°27.129 2°55.496 9.8 317 14.8 101920 52
2011-10-17 11:44 51°27.071 2°55.154 13.7 316 14.8 101920 51
2011-10-17 11:45 51°27.008 2°54.808 9.9 317 14.9 101910 52
2011-10-17 11:46 51°26.938 2°54.47 10.9 315 14.9 101910 51
2011-10-17 11:47 51°26.882 2°54.124 16.3 316 14.9 101910 52
2011-10-17 11:48 51°26.823 2°53.78 12.1 317 14.9 101900 51
2011-10-17 11:49 51°26.753 2°53.442 12.4 317 14.9 101910 52
2011-10-17 11:50 51°26.689 2°53.104 13.1 315 14.9 101890 51
2011-10-17 11:51 51°26.624 2°52.768 12.4 23 14.9 101900 52
2011-10-17 11:52 51°26.569 2°52.429 12.5 316 14.9 101900 52
2011-10-17 11:53 51°26.512 2°52.092 14.3 22 14.9 101890 52
2011-10-17 11:54 51°26.448 2°51.767 13.9 25 14.9 101890 53
2011-10-17 11:55 51°26.394 2°51.43 10.5 316 14.9 101890 53
2011-10-17 11:56 51°26.355 2°51.1 11.1 22 14.9 101900 53
2011-10-17 11:57 51°26.309 2°50.766 14.8 317 15 101900 52
2011-10-17 11:58 51°26.249 2°50.438 9.6 318 15 101890 52
2011-10-17 11:59 51°26.185 2°50.105 11.4 20 15.1 101890 52
2011-10-17 12:00 51°26.151 2°49.776 12.4 317 15.2 101890 53
2011-10-17 12:01 51°26.113 2°49.438 14.2 316 15.2 101890 51
2011-10-17 12:02 51°26.067 2°49.162 11.9 316 15.2 101890 50
2011-10-17 12:03 51°26.037 2°49.009 8.2 20 15.3 101910 51
2011-10-17 12:04 51°26.038 2°48.893 11.2 24 15.2 101900 49
2011-10-17 12:05 51°26.041 2°48.788 8.5 28 15.3 101900 48
2011-10-17 12:06 51°26.032 2°48.68 8.8 21 15.3 101890 47
2011-10-17 12:07 51°26.016 2°48.557 12.3 23 15.4 101890 47
2011-10-17 12:08 51°26 2°48.483 7.8 23 15.5 101890 47
2011-10-17 12:09 51°25.995 2°48.475 9.2 20 15.6 101900 47
2011-10-17 12:10 51°25.99 2°48.472 8.5 254 15.7 101890 48
2011-10-17 12:11 51°25.986 2°48.47 6.9 258 15.7 101900 47
2011-10-17 12:12 51°25.983 2°48.471 6.7 261 15.8 101900 47
2011-10-17 12:13 51°25.977 2°48.475 6.9 267 15.7 101900 47
2011-10-17 12:14 51°25.971 2°48.48 9.2 32 15.6 101900 47
2011-10-17 12:15 51°26.012 2°48.428 8.1 250 15.6 101890 47
2011-10-17 12:16 51°26.109 2°48.294 9.3 250 15.7 101890 47
2011-10-17 12:17 51°26.152 2°48.199 7.6 264 15.6 101870 45
2011-10-17 12:18 51°26.155 2°48.183 6.1 270 15.7 101880 46
2011-10-17 12:19 51°26.157 2°48.175 5.4 264 15.7 101880 45
2011-10-17 12:20 51°26.157 2°48.168 9 258 15.6 101880 45
2011-10-17 12:21 51°26.154 2°48.162 9 257 15.7 101880 45
2011-10-17 12:22 51°26.15 2°48.161 9.3 256 15.7 101880 45
2011-10-17 12:23 51°26.145 2°48.163 8.4 262 15.7 101870 46
2011-10-17 12:24 51°26.138 2°48.166 8.9 262 15.8 101880 47
2011-10-17 12:25 51°26.131 2°48.169 5.1 265 15.7 101870 45
2011-10-17 12:26 51°26.123 2°48.173 5 268 15.7 101870 46
2011-10-17 12:27 51°26.118 2°48.177 6.6 265 15.7 101880 47
2011-10-17 12:28 51°26.113 2°48.183 6.2 263 15.6 101870 45
2011-10-17 12:29 51°26.109 2°48.188 6.2 264 15.6 101880 46
2011-10-17 12:30 51°26.104 2°48.197 6.5 265 15.6 101870 46
2011-10-17 12:31 51°26.098 2°48.206 8.1 267 15.6 101870 46
2011-10-17 12:32 51°26.094 2°48.216 8.7 266 15.6 101870 46
2011-10-17 12:33 51°26.09 2°48.226 6.6 265 15.6 101870 46
2011-10-17 12:34 51°26.086 2°48.237 8.2 269 15.7 101870 46
2011-10-17 12:35 51°26.085 2°48.246 6.8 266 15.7 101860 47
2011-10-17 12:36 51°26.083 2°48.255 5.2 265 15.6 101860 46
2011-10-17 12:37 51°26.082 2°48.265 6.6 264 15.6 101860 46
2011-10-17 12:38 51°26.081 2°48.275 7.8 265 15.6 101850 45
2011-10-17 12:39 51°26.079 2°48.286 5.9 264 15.7 101850 45
2011-10-17 12:40 51°26.078 2°48.297 6.1 265 15.7 101860 46
2011-10-17 12:41 51°26.076 2°48.309 7.5 262 15.7 101860 47
2011-10-17 12:42 51°26.073 2°48.321 5.8 264 15.8 101850 48
2011-10-17 12:43 51°26.07 2°48.333 4.9 265 15.7 101860 47
2011-10-17 12:44 51°26.068 2°48.346 7.3 267 15.6 101850 49
2011-10-17 12:45 51°26.067 2°48.36 7.6 270 15.6 101860 47
2011-10-17 12:46 51°26.067 2°48.373 5.6 264 15.6 101850 47
2011-10-17 12:47 51°26.066 2°48.385 11.6 262 15.6 101850 46
2011-10-17 12:48 51°26.066 2°48.397 4.5 261 15.6 101850 47
2011-10-17 12:49 51°26.067 2°48.412 8.5 264 15.6 101850 47
2011-10-17 12:50 51°26.067 2°48.429 5.9 265 15.7 101850 47
2011-10-17 12:51 51°26.067 2°48.446 6.1 263 15.7 101850 47
2011-10-17 12:52 51°26.067 2°48.461 5.2 268 15.7 101850 49
2011-10-17 12:53 51°26.068 2°48.476 6.7 265 15.6 101850 47
2011-10-17 12:54 51°26.07 2°48.492 7.7 263 15.5 101850 47
2011-10-17 12:55 51°26.071 2°48.511 6.6 265 15.5 101830 47
2011-10-17 12:56 51°26.072 2°48.529 6.5 265 15.5 101840 47
2011-10-17 12:57 51°26.074 2°48.548 9.7 263 15.4 101840 47
2011-10-17 12:58 51°26.076 2°48.568 5.8 262 15.5 101830 47
2011-10-17 12:59 51°26.08 2°48.591 8.1 263 15.5 101830 45
2011-10-17 13:00 51°26.083 2°48.615 7.6 264 15.5 101820 45
2011-10-17 13:01 51°26.087 2°48.639 6.7 264 15.5 101830 43
2011-10-17 13:02 51°26.091 2°48.665 8.3 262 15.6 101820 44
2011-10-17 13:03 51°26.095 2°48.691 3.9 265 15.6 101820 43
2011-10-17 13:04 51°26.112 2°48.641 15.1 21 15.7 101820 44
2011-10-17 13:05 51°26.026 2°48.52 11.5 334 15.7 101800 43
2011-10-17 13:06 51°25.888 2°48.317 19 330 15.7 101790 43
2011-10-17 13:07 51°25.773 2°48.066 18 325 15.6 101780 42
2011-10-17 13:08 51°25.67 2°47.802 13.3 324 15.7 101780 42
2011-10-17 13:09 51°25.563 2°47.545 12.6 327 15.7 101790 43
2011-10-17 13:10 51°25.46 2°47.283 5.3 323 15.7 101790 43
2011-10-17 13:11 51°25.369 2°47.013 14.6 324 15.7 101780 43
2011-10-17 13:12 51°25.266 2°46.746 7.9 325 15.7 101790 43
2011-10-17 13:13 51°25.176 2°46.483 7.8 323 15.7 101780 44
2011-10-17 13:14 51°25.093 2°46.211 16.8 325 15.6 101780 43
2011-10-17 13:15 51°24.998 2°45.95 16.3 323 15.6 101770 43
2011-10-17 13:16 51°24.913 2°45.684 5.4 322 15.7 101770 44
2011-10-17 13:17 51°24.832 2°45.416 14.6 322 15.6 101770 43
2011-10-17 13:18 51°24.75 2°45.149 15.8 324 15.7 101770 44
2011-10-17 13:19 51°24.659 2°44.883 13.5 323 15.6 101770 43
2011-10-17 13:20 51°24.569 2°44.622 6.9 324 15.7 101770 44
2011-10-17 13:21 51°24.49 2°44.359 15.1 319 15.7 101770 44
2011-10-17 13:22 51°24.401 2°44.102 7.5 320 15.7 101760 44
2011-10-17 13:23 51°24.319 2°43.838 4.9 321 15.6 101760 43
2011-10-17 13:24 51°24.237 2°43.57 17.6 321 15.7 101760 43
2011-10-17 13:25 51°24.148 2°43.32 16.5 324 15.7 101750 43
2011-10-17 13:26 51°24.056 2°43.062 5.3 323 15.7 101750 43
2011-10-17 13:27 51°23.973 2°42.803 16.3 321 15.7 101750 43
2011-10-17 13:28 51°23.894 2°42.548 13.4 320 15.8 101740 42
2011-10-17 13:29 51°23.815 2°42.286 7.1 322 15.8 101750 43
2011-10-17 13:30 51°23.733 2°42.02 6 323 15.9 101740 44
2011-10-17 13:31 51°23.649 2°41.758 15.8 323 15.9 101740 43
2011-10-17 13:32 51°23.56 2°41.503 6.5 324 15.9 101730 43
2011-10-17 13:33 51°23.482 2°41.244 6.4 321 15.9 101740 43
2011-10-17 13:34 51°23.4 2°40.983 13.9 321 15.9 101720 43
2011-10-17 13:35 51°23.312 2°40.729 15 319 15.9 101740 43
2011-10-17 13:36 51°23.255 2°40.453 12.2 22 15.9 101730 44
2011-10-17 13:37 51°23.204 2°40.175 13.2 319 15.9 101730 45
2011-10-17 13:38 51°23.139 2°39.905 12.1 321 15.9 101720 44
2011-10-17 13:39 51°23.078 2°39.634 6.6 323 16 101720 44
2011-10-17 13:40 51°23.023 2°39.357 13.1 319 16 101710 44
2011-10-17 13:41 51°22.968 2°39.091 18.3 320 16 101700 43
2011-10-17 13:42 51°22.908 2°38.826 7.3 321 16 101710 44
2011-10-17 13:43 51°22.845 2°38.563 7.7 323 16.1 101710 44
2011-10-17 13:44 51°22.791 2°38.299 15.6 320 16 101700 44
2011-10-17 13:45 51°22.736 2°38.036 19.6 324 16.1 101710 44
2011-10-17 13:46 51°22.645 2°37.8 11.5 329 16 101700 44
2011-10-17 13:47 51°22.533 2°37.584 7.6 328 16 101700 44
2011-10-17 13:48 51°22.425 2°37.364 7.5 326 16 101710 45
2011-10-17 13:49 51°22.329 2°37.13 5.1 325 16 101710 45
2011-10-17 13:50 51°22.228 2°36.902 16.4 323 16 101700 46
2011-10-17 13:51 51°22.145 2°36.653 7.5 321 16 101700 45
2011-10-17 13:52 51°22.068 2°36.41 15.5 322 16 101700 45
2011-10-17 13:53 51°21.983 2°36.173 5.3 322 15.9 101690 44
2011-10-17 13:54 51°21.907 2°35.928 13.5 323 15.9 101690 45
2011-10-17 13:55 51°21.818 2°35.691 12.8 323 15.9 101690 45
2011-10-17 13:56 51°21.744 2°35.451 12.8 322 15.9 101700 45
2011-10-17 13:57 51°21.659 2°35.211 11.1 326 15.9 101700 45
2011-10-17 13:58 51°21.572 2°34.963 15 327 15.9 101700 46
2011-10-17 13:59 51°21.49 2°34.72 13.3 325 15.9 101690 46
2011-10-17 14:00 51°21.403 2°34.476 18.5 324 15.9 101700 46
2011-10-17 14:01 51°21.322 2°34.221 8.5 327 15.9 101690 46
2011-10-17 14:02 51°21.239 2°33.976 14.5 326 15.9 101690 47
2011-10-17 14:03 51°21.157 2°33.733 15.1 325 15.9 101680 47
2011-10-17 14:04 51°21.069 2°33.491 4.4 327 15.8 101680 47
2011-10-17 14:05 51°20.991 2°33.245 14.4 326 15.8 101660 47
2011-10-17 14:06 51°20.913 2°32.998 19.2 322 15.9 101670 48
2011-10-17 14:07 51°20.838 2°32.752 16 323 15.8 101680 48
2011-10-17 14:08 51°20.755 2°32.507 6.9 322 15.8 101660 47
2011-10-17 14:09 51°20.674 2°32.262 8.3 322 15.9 101660 47
2011-10-17 14:10 51°20.594 2°32.021 11.6 322 15.9 101650 47
2011-10-17 14:11 51°20.506 2°31.777 12.8 323 16 101650 48
2011-10-17 14:12 51°20.431 2°31.535 18.5 323 15.9 101650 47
2011-10-17 14:13 51°20.351 2°31.292 16.1 323 15.9 101650 47
2011-10-17 14:14 51°20.262 2°31.062 5 322 16 101660 48
2011-10-17 14:15 51°20.182 2°30.827 12.3 321 15.9 101640 46
2011-10-17 14:16 51°20.137 2°30.573 7.5 319 15.9 101640 47
2011-10-17 14:17 51°20.086 2°30.33 7.8 318 15.8 101630 47
2011-10-17 14:18 51°20.035 2°30.107 6.5 318 15.9 101650 48
2011-10-17 14:19 51°20.013 2°30.029 12.1 26 15.9 101660 48
2011-10-17 14:20 51°20.03 2°30.025 9.2 247 15.8 101670 48
2011-10-17 14:21 51°20.058 2°30.062 7.5 254 15.8 101680 48
2011-10-17 14:22 51°20.083 2°30.104 8 249 15.9 101680 48
2011-10-17 14:23 51°20.104 2°30.165 9.4 250 15.9 101680 49
2011-10-17 14:24 51°20.124 2°30.227 7.9 260 16 101680 49
2011-10-17 14:25 51°20.144 2°30.293 9.5 260 15.8 101690 47
2011-10-17 14:26 51°20.162 2°30.361 10.1 262 15.8 101690 49
2011-10-17 14:27 51°20.181 2°30.429 8.3 263 15.8 101680 49
2011-10-17 14:28 51°20.202 2°30.498 8.1 265 15.7 101690 47
2011-10-17 14:29 51°20.224 2°30.555 6.4 256 15.7 101690 48
2011-10-17 14:30 51°20.247 2°30.602 11.2 23 15.7 101670 48
2011-10-17 14:31 51°20.248 2°30.596 14 322 15.7 101650 48
2011-10-17 14:32 51°20.19 2°30.664 11.5 357 15.7 101630 47
2011-10-17 14:33 51°20.075 2°30.875 6.2 360 15.7 101620 49
2011-10-17 14:34 51°19.937 2°31.124 6.3 357 15.6 101610 48
2011-10-17 14:35 51°19.797 2°31.369 10.1 359 15.6 101620 49
2011-10-17 14:36 51°19.673 2°31.635 14.6 -999 15.7 101630 49
2011-10-17 14:37 51°19.551 2°31.902 12.8 358 15.6 101620 49
2011-10-17 14:38 51°19.427 2°32.163 9.6 356 15.6 101630 49
2011-10-17 14:39 51°19.308 2°32.43 14.9 359 15.7 101620 49
2011-10-17 14:40 51°19.186 2°32.697 11.7 359 15.7 101620 48
2011-10-17 14:41 51°19.07 2°32.963 12.2 358 15.7 101620 49
2011-10-17 14:42 51°18.944 2°33.223 14.5 1 15.8 101620 49
2011-10-17 14:43 51°18.819 2°33.487 13.3 6 15.7 101620 49
2011-10-17 14:44 51°18.694 2°33.752 14.1 2 15.7 101610 48
2011-10-17 14:45 51°18.564 2°34.021 18.2 359 15.8 101600 48
2011-10-17 14:46 51°18.441 2°34.285 6.5 2 15.7 101620 48
2011-10-17 14:47 51°18.316 2°34.555 12.3 359 15.8 101610 49
2011-10-17 14:48 51°18.197 2°34.825 16 358 15.7 101610 48
2011-10-17 14:49 51°18.074 2°35.096 14.2 2 15.8 101610 48
2011-10-17 14:50 51°17.949 2°35.359 14.7 359 15.8 101610 48
2011-10-17 14:51 51°17.794 2°35.568 18.3 352 15.8 101600 47
2011-10-17 14:52 51°17.627 2°35.73 18.9 355 15.8 101590 47
2011-10-17 14:53 51°17.453 2°35.897 12 354 15.8 101580 45
2011-10-17 14:54 51°17.285 2°36.059 14 350 15.9 101590 46
2011-10-17 14:55 51°17.118 2°36.233 16.7 353 15.9 101590 46
2011-10-17 14:56 51°16.952 2°36.417 16.8 356 15.8 101580 46
2011-10-17 14:57 51°16.793 2°36.591 18.5 356 15.9 101580 46
2011-10-17 14:58 51°16.695 2°36.714 10.7 358 15.9 101600 46
2011-10-17 14:59 51°16.649 2°36.84 13.8 359 15.9 101620 49
2011-10-17 15:00 51°16.616 2°36.899 9.4 343 15.8 101620 46
2011-10-17 15:01 51°16.581 2°36.933 11 346 15.8 101620 47
2011-10-17 15:02 51°16.51 2°36.955 14.8 328 15.8 101620 46
2011-10-17 15:03 51°16.509 2°36.9 12.9 22 15.9 101610 45
2011-10-17 15:04 51°16.53 2°36.872 11.1 22 15.8 101620 46
2011-10-17 15:05 51°16.564 2°36.9 13.5 21 15.9 101640 47
2011-10-17 15:06 51°16.6 2°36.941 9 253 15.9 101650 46
2011-10-17 15:07 51°16.635 2°36.992 9 259 15.9 101670 47
2011-10-17 15:08 51°16.667 2°37.048 8.1 262 15.9 101670 46
2011-10-17 15:09 51°16.699 2°37.106 6.3 264 15.9 101660 47
2011-10-17 15:10 51°16.73 2°37.161 7 263 15.9 101670 47
2011-10-17 15:11 51°16.763 2°37.215 13.2 258 15.9 101650 46
2011-10-17 15:12 51°16.797 2°37.262 10.1 255 15.9 101640 48
2011-10-17 15:13 51°16.832 2°37.307 11.8 251 15.9 101640 47
2011-10-17 15:14 51°16.86 2°37.297 9.6 323 15.9 101610 48
2011-10-17 15:15 51°16.834 2°37.318 7.1 6 15.9 101610 47
2011-10-17 15:16 51°16.804 2°37.486 10.4 11 15.9 101620 48
2011-10-17 15:17 51°16.729 2°37.61 8.8 355 15.8 101600 47
2011-10-17 15:18 51°16.615 2°37.814 7.9 6 15.8 101600 48
2011-10-17 15:19 51°16.509 2°38.098 6.8 358 15.8 101610 46
2011-10-17 15:20 51°16.355 2°38.297 13.9 354 15.9 101590 48
2011-10-17 15:21 51°16.18 2°38.431 7.6 345 15.9 101570 47
2011-10-17 15:22 51°15.995 2°38.477 4.8 347 15.9 101580 47
2011-10-17 15:23 51°15.812 2°38.561 8.2 349 15.9 101570 48
2011-10-17 15:24 51°15.629 2°38.647 4.8 349 15.9 101570 46
2011-10-17 15:25 51°15.444 2°38.719 6.4 346 15.9 101580 47
2011-10-17 15:26 51°15.261 2°38.795 4.4 346 15.9 101580 47
2011-10-17 15:27 51°15.078 2°38.879 10.5 348 15.9 101590 47
2011-10-17 15:28 51°14.895 2°38.955 11 346 15.9 101580 48
2011-10-17 15:29 51°14.712 2°39.025 7.5 349 15.9 101580 48
2011-10-17 15:30 51°14.531 2°39.114 13.3 349 15.9 101570 47
2011-10-17 15:31 51°14.349 2°39.2 6.3 349 15.9 101570 47
2011-10-17 15:32 51°14.164 2°39.266 15.3 344 15.9 101590 48
2011-10-17 15:33 51°13.98 2°39.341 15.9 350 15.9 101590 48
2011-10-17 15:34 51°13.793 2°39.426 15.5 343 15.9 101580 47
2011-10-17 15:35 51°13.612 2°39.498 14.8 345 15.9 101560 46
2011-10-17 15:36 51°13.425 2°39.571 14.3 347 15.9 101570 48
2011-10-17 15:37 51°13.246 2°39.654 7.9 348 15.9 101570 47
2011-10-17 15:38 51°13.062 2°39.727 7.1 348 15.9 101570 48
2011-10-17 15:39 51°12.88 2°39.805 18 349 15.8 101580 48
2011-10-17 15:40 51°12.699 2°39.894 15.9 351 15.8 101570 47
2011-10-17 15:41 51°12.518 2°39.968 7.7 347 15.8 101580 48
2011-10-17 15:42 51°12.336 2°40.038 17.5 348 15.8 101580 48
2011-10-17 15:43 51°12.15 2°40.103 10.6 347 15.7 101570 46
2011-10-17 15:44 51°11.971 2°40.088 15.8 342 15.8 101580 47
2011-10-17 15:45 51°11.79 2°40.066 8 343 15.8 101580 47
2011-10-17 15:46 51°11.626 2°40.047 14.6 346 15.8 101590 47
2011-10-17 15:47 51°11.513 2°40.041 16.1 348 15.8 101590 47
2011-10-17 15:48 51°11.407 2°40.215 7 6 15.8 101590 47
2011-10-17 15:49 51°11.352 2°40.553 9.3 3 15.7 101600 47
2011-10-17 15:50 51°11.284 2°40.884 7.4 2 15.7 101600 47
2011-10-17 15:51 51°11.203 2°41.204 12 2 15.7 101590 45
2011-10-17 15:52 51°11.127 2°41.527 9.8 8 15.7 101590 47
2011-10-17 15:53 51°11.072 2°41.835 10.4 11 15.7 101600 47
2011-10-17 15:54 51°11.058 2°42.035 5.7 37 15.7 101610 46
2011-10-17 15:55 51°11.111 2°42.133 6.9 27 15.8 101620 47
2011-10-17 15:56 51°11.126 2°42.177 7.1 23 15.8 101630 46
2011-10-17 15:57 51°11.138 2°42.219 7.7 26 15.8 101620 47
2011-10-17 15:58 51°11.151 2°42.264 8.8 22 15.7 101630 47
2011-10-17 15:59 51°11.168 2°42.308 6.6 28 15.7 101630 45
2011-10-17 16:00 51°11.186 2°42.348 7.7 26 15.7 101630 47
2011-10-17 16:01 51°11.203 2°42.385 7.4 341 15.7 101620 47
2011-10-17 16:02 51°11.219 2°42.427 5.7 269 15.6 101620 45
2011-10-17 16:03 51°11.235 2°42.467 4.5 265 15.7 101620 46
2011-10-17 16:04 51°11.29 2°42.498 2.4 22 15.7 101620 47
2011-10-17 16:05 51°11.316 2°42.639 7.7 9 15.7 101610 47
2011-10-17 16:06 51°11.257 2°42.881 10.4 360 15.6 101590 47
2011-10-17 16:07 51°11.199 2°43.205 9.2 9 15.7 101590 45
2011-10-17 16:08 51°11.213 2°43.565 6 17 15.6 101600 46
2011-10-17 16:09 51°11.267 2°43.903 6.2 19 15.6 101620 47
2011-10-17 16:10 51°11.332 2°44.244 5.3 23 15.7 101610 47
2011-10-17 16:11 51°11.395 2°44.587 7 22 15.7 101610 47
2011-10-17 16:12 51°11.469 2°44.929 5 15 15.6 101610 46
2011-10-17 16:13 51°11.553 2°45.253 4.4 21 15.6 101610 47
2011-10-17 16:14 51°11.645 2°45.579 5.7 22 15.6 101610 47
2011-10-17 16:15 51°11.716 2°45.919 4.3 7 15.6 101610 45
2011-10-17 16:16 51°11.784 2°46.259 4.6 11 15.6 101610 47
2011-10-17 16:17 51°11.868 2°46.591 4.5 12 15.6 101620 46
2011-10-17 16:18 51°11.962 2°46.917 3.4 24 15.6 101620 47
2011-10-17 16:19 51°12.044 2°47.251 5.9 10 15.6 101620 47
2011-10-17 16:20 51°12.13 2°47.589 4.8 23 15.6 101610 47
2011-10-17 16:21 51°12.224 2°47.914 5.5 14 15.6 101620 47
2011-10-17 16:22 51°12.304 2°48.249 4.6 26 15.6 101610 46
2011-10-17 16:23 51°12.391 2°48.578 4.3 28 15.6 101620 45
2011-10-17 16:24 51°12.489 2°48.891 4.5 10 15.5 101610 47
2011-10-17 16:25 51°12.605 2°49.196 2.4 30 15.6 101620 48
2011-10-17 16:26 51°12.719 2°49.503 3.6 22 15.6 101620 48
2011-10-17 16:27 51°12.834 2°49.809 2.8 21 15.6 101610 47
2011-10-17 16:28 51°12.945 2°50.121 3.5 15 15.6 101610 47
2011-10-17 16:29 51°13.048 2°50.437 4.9 12 15.6 101610 47
2011-10-17 16:30 51°13.15 2°50.76 3.2 20 15.5 101610 46
2011-10-17 16:31 51°13.266 2°51.059 4.6 16 15.5 101610 46
2011-10-17 16:32 51°13.388 2°51.358 3.6 5 15.5 101610 46
2011-10-17 16:33 51°13.499 2°51.668 3.2 11 15.5 101600 47
2011-10-17 16:34 51°13.628 2°51.96 4.1 18 15.5 101610 46
2011-10-17 16:35 51°13.758 2°52.249 4.5 14 15.5 101600 47
2011-10-17 16:36 51°13.877 2°52.553 4.5 8 15.4 101600 47
2011-10-17 16:37 51°14.001 2°52.852 5.4 16 15.4 101600 46
2011-10-17 16:38 51°14.122 2°53.155 4.7 11 15.4 101600 48
2011-10-17 16:39 51°14.243 2°53.455 3.9 7 15.4 101590 45
2011-10-17 16:40 51°14.367 2°53.759 7.2 20 15.4 101580 47
2011-10-17 16:41 51°14.479 2°54.066 5.8 16 15.4 101570 47
2011-10-17 16:42 51°14.58 2°54.372 6.3 13 15.4 101570 46
2011-10-17 16:43 51°14.629 2°54.705 8.2 1 15.4 101560 47
2011-10-17 16:44 51°14.539 2°54.985 10.8 348 15.3 101540 47
2011-10-17 16:45 51°14.391 2°55.162 8.1 345 15.4 101540 45
2011-10-17 16:46 51°14.26 2°55.302 9.4 339 15.4 101560 45
2011-10-17 16:47 51°14.133 2°55.414 8.2 343 15.4 101570 44
2011-10-17 16:48 51°14.003 2°55.506 8.4 334 15.5 101560 45
2011-10-17 16:49 51°13.881 2°55.591 7.8 336 15.5 101570 45
2011-10-17 16:50 51°13.776 2°55.685 8.3 338 15.4 101560 45
2011-10-17 16:51 51°13.707 2°55.8 6.4 350 15.4 101560 45
2011-10-17 16:52 51°13.663 2°55.896 4.8 349 15.3 101560 46